Time;durP1;ratioP1;P1;durP2;ratioP2;P2;SDS_P1;SDS_P2;PMS_P1;PMS_P2;Temp;Humidity;BMP_temperature;BMP_pressure;BME280_temperature;BME280_humidity;BME280_pressure;Samples;Min_cycle;Max_cycle;Signal;HPM_P1;HPM_P2
2023/01/22 00:00:16;;;;;;;;;;;;;;;11.44;68.26;103132.75;1260459;23;674;-76
2023/01/22 00:01:11;;;;;;;;;;;;;;;11.43;68.43;103131.00;1259591;23;658;-76
2023/01/22 00:02:01;;;;;;;;;;;;;;;11.44;68.20;103131.88;1261291;23;689;-77
2023/01/22 00:02:52;;;;;;;;;;;;;;;11.44;68.90;103124.75;1260372;23;670;-76
2023/01/22 00:03:42;;;;;;;;;;;;;;;11.43;68.57;103131.00;1261347;23;638;-74
2023/01/22 00:04:33;;;;;;;;;;;;;;;11.43;68.77;103119.47;1260356;23;664;-74
2023/01/22 00:05:24;;;;;;;;;;;;;;;11.44;68.90;103116.75;1261895;23;634;-74
2023/01/22 00:06:14;;;;;;;;;;;;;;;11.43;69.09;103120.34;1259459;23;611;-74
2023/01/22 00:07:04;;;;;;;;;;;;;;;11.42;69.03;103112.38;1261873;23;696;-74
2023/01/22 00:07:55;;;;;;;;;;;;;;;11.46;68.22;103119.38;1261364;23;641;-74
2023/01/22 00:08:47;;;;;;;;;;;;;;;11.47;68.89;103121.09;1255040;23;617;-74
2023/01/22 00:09:37;;;;;;;;;;;;;;;11.45;68.29;103117.63;1249641;23;657;-74
2023/01/22 00:10:27;;;;;;;;;;;;;;;11.44;68.84;103116.75;1254552;23;657;-74
2023/01/22 00:11:18;;;;;;;;;;;;;;;11.43;68.53;103120.34;1261286;23;642;-74
2023/01/22 00:12:08;;;;;;;;;;;;;;;11.42;69.22;103120.38;1259767;23;602;-73
2023/01/22 00:12:59;;;;;;;;;;;;;;;11.41;68.46;103122.16;1259811;23;630;-74
2023/01/22 00:13:49;;;;;;;;;;;;;;;11.40;68.69;103128.44;1261395;23;613;-74
2023/01/22 00:14:41;;;;;;;;;;;;;;;11.41;68.65;103122.16;1259824;23;745;-73
2023/01/22 00:15:31;;;;;;;;;;;;;;;11.41;68.61;103130.19;1261278;23;668;-74
2023/01/22 00:16:21;;;;;;;;;;;;;;;11.41;69.30;103124.84;1261243;23;649;-74
2023/01/22 00:17:13;;;;;;;;;;;;;;;11.40;68.49;103125.75;1259566;23;618;-75
2023/01/22 00:18:03;;;;;;;;;;;;;;;11.41;69.26;103122.16;1261155;23;621;-75
2023/01/22 00:18:53;;;;;;;;;;;;;;;11.40;68.37;103120.44;1259743;23;606;-74
2023/01/22 00:19:44;;;;;;;;;;;;;;;11.40;68.94;103116.88;1261299;23;681;-75
2023/01/22 00:20:34;;;;;;;;;;;;;;;11.39;68.43;103121.34;1259589;23;633;-74
2023/01/22 00:21:26;;;;;;;;;;;;;;;11.39;68.63;103113.34;1260549;23;681;-74
2023/01/22 00:22:17;;;;;;;;;;;;;;;11.41;69.03;103111.50;1261313;23;672;-74
2023/01/22 00:23:07;;;;;;;;;;;;;;;11.41;68.62;103116.84;1261276;23;669;-75
2023/01/22 00:23:57;;;;;;;;;;;;;;;11.40;69.19;103120.44;1255543;23;676;-75
2023/01/22 00:24:48;;;;;;;;;;;;;;;11.39;68.39;103113.34;1254510;23;642;-74
2023/01/22 00:25:39;;;;;;;;;;;;;;;11.41;68.65;103111.50;1260445;23;657;-74
2023/01/22 00:26:29;;;;;;;;;;;;;;;11.43;68.73;103108.78;1262083;23;593;-74
2023/01/22 00:27:19;;;;;;;;;;;;;;;11.44;68.62;103110.53;1259704;23;610;-74
2023/01/22 00:28:10;;;;;;;;;;;;;;;11.41;69.08;103106.16;1261852;23;652;-74
2023/01/22 00:29:00;;;;;;;;;;;;;;;11.39;69.08;103113.34;1259998;23;697;-73
2023/01/22 00:29:51;;;;;;;;;;;;;;;11.40;69.07;103107.06;1259650;23;697;-73
2023/01/22 00:30:41;;;;;;;;;;;;;;;11.41;68.31;103110.63;1259855;23;670;-73
2023/01/22 00:31:32;;;;;;;;;;;;;;;11.37;69.43;103107.16;1261370;23;672;-72
2023/01/22 00:32:22;;;;;;;;;;;;;;;11.37;69.11;103106.28;1259550;23;622;-72
2023/01/22 00:33:13;;;;;;;;;;;;;;;11.35;69.20;103098.34;1255824;23;708;-73
2023/01/22 00:34:03;;;;;;;;;;;;;;;11.37;69.21;103104.50;1249196;23;626;-73
2023/01/22 00:34:53;;;;;;;;;;;;;;;11.37;68.50;103104.50;1254482;23;1251;-73
2023/01/22 00:35:44;;;;;;;;;;;;;;;11.38;69.32;103103.56;1256045;23;618;-73
2023/01/22 00:36:34;;;;;;;;;;;;;;;11.36;69.14;103105.41;1255215;23;665;-73
2023/01/22 00:37:25;;;;;;;;;;;;;;;11.36;69.06;103101.88;1255276;23;1945;-73
2023/01/22 00:38:16;;;;;;;;;;;;;;;11.33;69.37;103105.50;1256142;23;676;-74
2023/01/22 00:39:06;;;;;;;;;;;;;;;11.35;69.22;103103.66;1253542;23;678;-74
2023/01/22 00:39:56;;;;;;;;;;;;;;;11.37;69.49;103108.97;1256011;23;661;-74
2023/01/22 00:40:47;;;;;;;;;;;;;;;11.36;69.30;103102.75;1253528;23;650;-74
2023/01/22 00:41:37;;;;;;;;;;;;;;;11.37;69.09;103103.63;1255313;23;617;-75
2023/01/22 00:42:28;;;;;;;;;;;;;;;11.36;69.21;103096.53;1254017;23;634;-75
2023/01/22 00:43:18;;;;;;;;;;;;;;;11.35;68.89;103094.78;1253698;23;645;-74
2023/01/22 00:44:09;;;;;;;;;;;;;;;11.33;69.45;103094.84;1253700;23;673;-75
2023/01/22 00:44:59;;;;;;;;;;;;;;;11.32;69.20;103098.44;1253621;23;643;-75
2023/01/22 00:45:49;;;;;;;;;;;;;;;11.34;69.14;103093.03;1253857;23;685;-74
2023/01/22 00:46:40;;;;;;;;;;;;;;;11.33;69.43;103097.50;1253552;23;623;-74
2023/01/22 00:47:30;;;;;;;;;;;;;;;11.35;69.13;103097.47;1255502;23;649;-75
2023/01/22 00:48:21;;;;;;;;;;;;;;;11.35;69.36;103087.66;1255387;23;618;-74
2023/01/22 00:49:11;;;;;;;;;;;;;;;11.35;69.16;103094.78;1253697;23;712;-75
2023/01/22 00:50:02;;;;;;;;;;;;;;;11.34;69.17;103085.91;1253939;23;685;-75
2023/01/22 00:50:52;;;;;;;;;;;;;;;11.34;69.03;103099.25;1255307;23;674;-75
2023/01/22 00:51:42;;;;;;;;;;;;;;;11.32;68.74;103095.75;1254247;23;662;-74
2023/01/22 00:52:33;;;;;;;;;;;;;;;11.32;69.34;103101.09;1253895;23;586;-74
2023/01/22 00:53:23;;;;;;;;;;;;;;;11.34;68.53;103103.72;1255234;23;665;-74
2023/01/22 00:54:14;;;;;;;;;;;;;;;11.34;68.84;103101.91;1254444;23;662;-74
2023/01/22 00:55:04;;;;;;;;;;;;;;;11.33;69.11;103099.31;1255324;23;616;-74
2023/01/22 00:55:54;;;;;;;;;;;;;;;11.35;68.93;103093.00;1253683;23;706;-74
2023/01/22 00:56:45;;;;;;;;;;;;;;;11.35;69.13;103101.00;1254194;23;610;-75
2023/01/22 00:57:35;;;;;;;;;;;;;;;11.35;68.93;103094.78;1253690;23;1953;-74
2023/01/22 00:58:26;;;;;;;;;;;;;;;11.33;69.40;103099.31;1255153;23;697;-74
2023/01/22 00:59:16;;;;;;;;;;;;;;;11.33;68.62;103107.31;1254798;23;646;-75
2023/01/22 01:00:07;;;;;;;;;;;;;;;11.31;68.71;103096.69;1254904;23;676;-75
2023/01/22 01:00:57;;;;;;;;;;;;;;;11.32;68.62;103101.09;1256414;23;626;-75
2023/01/22 01:01:47;;;;;;;;;;;;;;;11.32;69.09;103098.44;1255670;23;602;-75
2023/01/22 01:03:25;;;;;;;;;;;;;;;11.31;69.31;103102.00;1255424;23;645;-74
2023/01/22 01:03:48;;;;;;;;;;;;;;;11.34;69.02;103104.59;1255229;23;1577;-74
2023/01/22 01:04:39;;;;;;;;;;;;;;;11.34;69.33;103098.38;1254400;23;642;-76
2023/01/22 01:05:29;;;;;;;;;;;;;;;11.33;69.10;103099.31;1255343;23;637;-74
2023/01/22 01:06:19;;;;;;;;;;;;;;;11.33;68.73;103101.97;1255939;23;642;-75
2023/01/22 01:07:10;;;;;;;;;;;;;;;11.33;69.12;103096.63;1254986;23;677;-75
2023/01/22 01:08:00;;;;;;;;;;;;;;;11.31;69.25;103098.47;1255175;23;649;-75
2023/01/22 01:08:51;;;;;;;;;;;;;;;11.32;69.35;103092.22;1254483;23;681;-74
2023/01/22 01:09:41;;;;;;;;;;;;;;;11.32;69.06;103089.53;1255455;23;609;-74
2023/01/22 01:10:32;;;;;;;;;;;;;;;11.32;68.73;103090.41;1253661;23;697;-74
2023/01/22 01:11:22;;;;;;;;;;;;;;;11.33;69.11;103096.63;1254347;23;631;-74
2023/01/22 01:12:12;;;;;;;;;;;;;;;11.33;68.68;103097.50;1253729;23;704;-77
2023/01/22 01:13:03;;;;;;;;;;;;;;;11.31;68.83;103098.47;1254354;23;701;-75
2023/01/22 01:13:53;;;;;;;;;;;;;;;11.33;68.71;103097.50;1254185;23;681;-75
2023/01/22 01:14:44;;;;;;;;;;;;;;;11.32;68.77;103095.75;1254961;23;677;-75
2023/01/22 01:15:34;;;;;;;;;;;;;;;11.31;69.26;103094.00;1249299;23;685;-74
2023/01/22 01:16:31;;;;;;;;;;;;;;;11.32;68.85;103089.53;1255891;23;693;-74
2023/01/22 01:17:21;;;;;;;;;;;;;;;11.33;69.20;103091.28;1255605;23;1936;-74
2023/01/22 01:18:13;;;;;;;;;;;;;;;11.33;68.85;103085.94;1256031;23;661;-74
2023/01/22 01:19:03;;;;;;;;;;;;;;;11.33;68.34;103091.28;1256444;23;662;-75
2023/01/22 01:19:54;;;;;;;;;;;;;;;11.29;69.17;103093.19;1255313;23;701;-74
2023/01/22 01:20:44;;;;;;;;;;;;;;;11.30;69.11;103089.59;1254646;23;697;-74
2023/01/22 01:21:34;;;;;;;;;;;;;;;11.31;69.35;103087.78;1255970;23;638;-75
2023/01/22 01:22:25;;;;;;;;;;;;;;;11.29;68.63;103093.19;1254130;23;669;-75
2023/01/22 01:23:15;;;;;;;;;;;;;;;11.31;68.60;103086.00;1257063;23;618;-74
2023/01/22 01:24:06;;;;;;;;;;;;;;;11.30;68.57;103084.25;1255709;23;688;-75
2023/01/22 01:24:56;;;;;;;;;;;;;;;11.32;68.79;103090.41;1253871;23;626;-75
2023/01/22 01:25:47;;;;;;;;;;;;;;;11.32;68.65;103086.88;1254679;23;701;-75
2023/01/22 01:26:37;;;;;;;;;;;;;;;11.30;68.81;103083.38;1255604;23;688;-76
2023/01/22 01:27:30;;;;;;;;;;;;;;;11.30;69.23;103083.38;1254031;23;603;-76
2023/01/22 01:28:20;;;;;;;;;;;;;;;11.29;68.95;103079.84;1256258;23;677;-75
2023/01/22 01:29:11;;;;;;;;;;;;;;;11.29;68.76;103082.50;1254241;23;706;-76
2023/01/22 01:30:01;;;;;;;;;;;;;;;11.30;68.53;103078.03;1254147;23;650;-76
2023/01/22 01:30:52;;;;;;;;;;;;;;;11.33;68.55;103085.94;1256241;23;719;-75
2023/01/22 01:31:42;;;;;;;;;;;;;;;11.30;69.22;103080.72;1253844;23;615;-75
2023/01/22 01:32:33;;;;;;;;;;;;;;;11.29;68.75;103079.84;1254967;23;611;-76
2023/01/22 01:33:23;;;;;;;;;;;;;;;11.30;69.31;103070.03;1253887;23;658;-75
2023/01/22 01:34:13;;;;;;;;;;;;;;;11.29;69.04;103069.16;1253931;23;591;-73
2023/01/22 01:35:04;;;;;;;;;;;;;;;11.29;69.13;103068.28;1254465;23;642;-73
2023/01/22 01:35:54;;;;;;;;;;;;;;;11.27;68.36;103076.38;1254849;23;707;-74
2023/01/22 01:36:45;;;;;;;;;;;;;;;11.26;69.00;103074.63;1254792;23;685;-74
2023/01/22 01:37:35;;;;;;;;;;;;;;;11.27;68.78;103068.38;1252808;23;1982;-74
2023/01/22 01:38:25;;;;;;;;;;;;;;;11.26;68.64;103063.06;1253420;23;626;-74
2023/01/22 01:39:16;;;;;;;;;;;;;;;11.28;68.88;103071.91;1255050;23;620;-74
2023/01/22 01:40:06;;;;;;;;;;;;;;;11.28;69.40;103066.56;1254945;23;618;-74
2023/01/22 01:40:57;;;;;;;;;;;;;;;11.28;69.12;103062.09;1254855;23;712;-74
2023/01/22 01:41:48;;;;;;;;;;;;;;;11.30;68.95;103062.03;1255127;23;681;-73
2023/01/22 01:42:39;;;;;;;;;;;;;;;11.28;69.06;103058.56;1253864;23;693;-73
2023/01/22 01:43:29;;;;;;;;;;;;;;;11.27;69.18;103063.03;1255231;23;614;-73
2023/01/22 01:44:20;;;;;;;;;;;;;;;11.28;68.59;103059.44;1255917;23;658;-73
2023/01/22 01:45:10;;;;;;;;;;;;;;;11.28;69.15;103059.44;1254688;23;674;-73
2023/01/22 01:46:01;;;;;;;;;;;;;;;11.24;69.12;103052.44;1253142;23;692;-73
2023/01/22 01:46:51;;;;;;;;;;;;;;;11.27;69.07;103055.03;1255262;23;814;-73
2023/01/22 01:47:41;;;;;;;;;;;;;;;11.27;69.32;103056.81;1254983;23;618;-74
2023/01/22 01:48:32;;;;;;;;;;;;;;;11.25;69.18;103056.84;1255037;23;638;-74
2023/01/22 01:49:22;;;;;;;;;;;;;;;11.25;68.72;103059.53;1253762;23;666;-74
2023/01/22 01:50:13;;;;;;;;;;;;;;;11.25;68.78;103053.31;1254875;23;649;-74
2023/01/22 01:51:04;;;;;;;;;;;;;;;11.24;68.55;103055.13;1253865;23;713;-74
2023/01/22 01:51:54;;;;;;;;;;;;;;;11.27;68.39;103057.69;1253312;23;702;-75
2023/01/22 01:52:44;;;;;;;;;;;;;;;11.27;68.80;103070.16;1255583;23;630;-75
2023/01/22 01:53:35;;;;;;;;;;;;;;;11.26;68.78;103063.94;1255609;23;634;-75
2023/01/22 01:54:25;;;;;;;;;;;;;;;11.26;69.21;103058.59;1254763;23;662;-75
2023/01/22 01:55:16;;;;;;;;;;;;;;;11.28;68.96;103063.91;1253448;23;694;-75
2023/01/22 01:56:06;;;;;;;;;;;;;;;11.27;68.38;103063.03;1255477;23;641;-76
2023/01/22 01:56:57;;;;;;;;;;;;;;;11.27;68.43;103060.34;1254852;23;677;-75
2023/01/22 01:57:47;;;;;;;;;;;;;;;11.28;68.92;103061.22;1254594;23;1885;-75
2023/01/22 01:58:38;;;;;;;;;;;;;;;11.27;68.26;103063.03;1253920;23;666;-75
2023/01/22 01:59:32;;;;;;;;;;;;;;;11.28;69.08;103061.22;1254842;23;649;-75
2023/01/22 02:00:22;;;;;;;;;;;;;;;11.28;68.93;103062.09;1254790;23;605;-75
2023/01/22 02:01:13;;;;;;;;;;;;;;;11.30;68.61;103062.03;1255566;23;629;-75
2023/01/22 02:02:03;;;;;;;;;;;;;;;11.30;68.52;103065.56;1254832;23;662;-74
2023/01/22 02:02:54;;;;;;;;;;;;;;;11.29;69.16;103061.16;1254220;23;658;-75
2023/01/22 02:03:44;;;;;;;;;;;;;;;11.29;68.99;103057.59;1255413;23;657;-74
2023/01/22 02:04:34;;;;;;;;;;;;;;;11.27;69.10;103060.34;1255645;23;676;-75
2023/01/22 02:05:25;;;;;;;;;;;;;;;11.27;68.80;103055.03;1255381;23;676;-74
2023/01/22 02:06:15;;;;;;;;;;;;;;;11.26;68.81;103053.28;1254314;23;609;-75
2023/01/22 02:07:06;;;;;;;;;;;;;;;11.27;68.62;103064.81;1254814;23;684;-75
2023/01/22 02:07:56;;;;;;;;;;;;;;;11.24;69.22;103049.78;1255410;23;602;-75
2023/01/22 02:08:47;;;;;;;;;;;;;;;11.25;68.80;103059.53;1254777;23;759;-74
2023/01/22 02:09:37;;;;;;;;;;;;;;;11.22;69.37;103053.41;1254808;23;638;-75
2023/01/22 02:10:28;;;;;;;;;;;;;;;11.21;69.49;103057.88;1253960;23;654;-75
2023/01/22 02:11:18;;;;;;;;;;;;;;;11.21;68.91;103054.34;1254740;23;834;-75
2023/01/22 02:12:08;;;;;;;;;;;;;;;11.20;69.01;103057.91;1254836;23;693;-74
2023/01/22 02:12:59;;;;;;;;;;;;;;;11.20;69.16;103057.91;1254320;23;693;-74
2023/01/22 02:13:49;;;;;;;;;;;;;;;11.23;69.43;103058.69;1254822;23;630;-74
2023/01/22 02:14:40;;;;;;;;;;;;;;;11.22;69.43;103059.63;1255467;23;662;-73
2023/01/22 02:15:30;;;;;;;;;;;;;;;11.22;69.48;103051.63;1254733;23;689;-73
2023/01/22 02:16:21;;;;;;;;;;;;;;;11.21;69.30;103051.66;1253676;23;677;-73
2023/01/22 02:17:11;;;;;;;;;;;;;;;11.20;69.09;103044.56;1255627;23;629;-73
2023/01/22 02:18:02;;;;;;;;;;;;;;;11.21;69.16;103049.00;1253255;23;622;-73
2023/01/22 02:18:52;;;;;;;;;;;;;;;11.19;68.74;103045.50;1253456;23;654;-74
2023/01/22 02:19:42;;;;;;;;;;;;;;;11.20;68.86;103047.25;1255163;23;626;-74
2023/01/22 02:20:33;;;;;;;;;;;;;;;11.18;69.28;103041.97;1255000;23;688;-74
2023/01/22 02:21:23;;;;;;;;;;;;;;;11.18;69.27;103044.63;1252978;23;606;-74
2023/01/22 02:22:14;;;;;;;;;;;;;;;11.19;69.28;103048.16;1255097;23;681;-74
2023/01/22 02:23:04;;;;;;;;;;;;;;;11.19;69.28;103042.81;1254628;23;666;-73
2023/01/22 02:23:55;;;;;;;;;;;;;;;11.19;68.73;103045.50;1255033;23;636;-73
2023/01/22 02:24:45;;;;;;;;;;;;;;;11.16;69.57;103046.47;1253491;23;650;-74
2023/01/22 02:25:35;;;;;;;;;;;;;;;11.16;69.48;103043.78;1254693;23;614;-73
2023/01/22 02:26:26;;;;;;;;;;;;;;;11.17;69.63;103048.22;1254814;23;618;-74
2023/01/22 02:27:16;;;;;;;;;;;;;;;11.15;68.84;103039.38;1253439;23;630;-74
2023/01/22 02:28:07;;;;;;;;;;;;;;;11.16;69.27;103051.81;1253627;23;665;-75
2023/01/22 02:28:57;;;;;;;;;;;;;;;11.15;68.81;103044.72;1256182;23;658;-75
2023/01/22 02:29:48;;;;;;;;;;;;;;;11.16;69.81;103056.25;1253536;23;678;-75
2023/01/22 02:30:38;;;;;;;;;;;;;;;11.13;68.90;103046.56;1255238;23;661;-74
2023/01/22 02:31:28;;;;;;;;;;;;;;;11.15;69.14;103052.72;1256129;23;620;-75
2023/01/22 02:32:19;;;;;;;;;;;;;;;11.15;69.11;103050.06;1254807;23;634;-74
2023/01/22 02:33:09;;;;;;;;;;;;;;;11.13;68.88;103052.78;1254766;23;610;-75
2023/01/22 02:34:04;;;;;;;;;;;;;;;11.14;69.50;103048.31;1255175;23;621;-74
2023/01/22 02:34:55;;;;;;;;;;;;;;;11.12;69.64;103050.16;1256869;23;1225;-74
2023/01/22 02:35:45;;;;;;;;;;;;;;;11.12;69.65;103052.81;1260146;23;602;-74
2023/01/22 02:36:35;;;;;;;;;;;;;;;11.12;69.38;103044.81;1260449;23;610;-75
2023/01/22 02:37:26;;;;;;;;;;;;;;;11.13;69.69;103051.91;1259862;23;1902;-75
2023/01/22 02:38:16;;;;;;;;;;;;;;;11.13;68.82;103052.78;1262581;23;594;-74
2023/01/22 02:39:07;;;;;;;;;;;;;;;11.15;69.25;103055.38;1259918;23;631;-74
2023/01/22 02:39:57;;;;;;;;;;;;;;;11.12;69.04;103044.81;1259657;23;665;-75
2023/01/22 02:40:48;;;;;;;;;;;;;;;11.12;69.65;103042.13;1260894;23;650;-75
2023/01/22 02:41:38;;;;;;;;;;;;;;;11.11;69.01;103043.06;1261475;23;626;-75
2023/01/22 02:42:28;;;;;;;;;;;;;;;11.11;69.70;103043.06;1259787;23;622;-75
2023/01/22 02:43:19;;;;;;;;;;;;;;;11.13;68.66;103041.22;1260600;23;653;-75
2023/01/22 02:44:09;;;;;;;;;;;;;;;11.12;68.78;103043.00;1259753;23;661;-75
2023/01/22 02:45:00;;;;;;;;;;;;;;;11.14;69.01;103040.31;1261886;23;795;-75
2023/01/22 02:45:50;;;;;;;;;;;;;;;11.15;69.38;103044.72;1262001;23;666;-75
2023/01/22 02:46:41;;;;;;;;;;;;;;;11.17;69.30;103039.34;1259890;23;669;-76
2023/01/22 02:47:31;;;;;;;;;;;;;;;11.14;69.44;103037.63;1260190;23;635;-75
2023/01/22 02:48:22;;;;;;;;;;;;;;;11.14;68.70;103038.50;1259853;23;618;-75
2023/01/22 02:49:12;;;;;;;;;;;;;;;11.15;68.84;103031.38;1255121;23;677;-75
2023/01/22 02:50:02;;;;;;;;;;;;;;;11.14;69.30;103037.63;1255433;23;630;-75
2023/01/22 02:50:53;;;;;;;;;;;;;;;11.14;68.93;103038.50;1260685;23;645;-75
2023/01/22 02:51:43;;;;;;;;;;;;;;;11.13;69.46;103036.75;1261425;23;609;-75
2023/01/22 02:52:34;;;;;;;;;;;;;;;11.16;69.43;103035.78;1260349;23;662;-76
2023/01/22 02:53:24;;;;;;;;;;;;;;;11.13;69.22;103035.88;1259650;23;646;-75
2023/01/22 02:54:15;;;;;;;;;;;;;;;11.12;69.34;103037.69;1259719;23;823;-76
2023/01/22 02:55:05;;;;;;;;;;;;;;;11.14;68.71;103035.84;1262071;23;661;-75
2023/01/22 02:55:55;;;;;;;;;;;;;;;11.14;68.77;103034.97;1259720;23;639;-75
2023/01/22 02:56:46;;;;;;;;;;;;;;;11.16;69.26;103037.59;1260550;23;641;-75
2023/01/22 02:57:36;;;;;;;;;;;;;;;11.19;69.17;103034.81;1261409;23;1936;-76
2023/01/22 02:58:27;;;;;;;;;;;;;;;11.18;69.33;103033.06;1261525;23;708;-75
2023/01/22 02:59:17;;;;;;;;;;;;;;;11.18;69.07;103028.59;1262008;23;645;-75
2023/01/22 03:00:08;;;;;;;;;;;;;;;11.17;68.71;103026.88;1259767;23;622;-76
2023/01/22 03:00:58;;;;;;;;;;;;;;;11.18;68.79;103027.75;1259916;23;681;-75
2023/01/22 03:01:49;;;;;;;;;;;;;;;11.17;69.35;103024.19;1260278;23;619;-75
2023/01/22 03:02:40;;;;;;;;;;;;;;;11.18;69.04;103028.59;1261482;23;669;-75
2023/01/22 03:03:30;;;;;;;;;;;;;;;11.18;69.48;103030.41;1259699;23;697;-75
2023/01/22 03:04:21;;;;;;;;;;;;;;;11.16;69.36;103027.78;1259688;23;645;-75
2023/01/22 03:05:11;;;;;;;;;;;;;;;11.19;68.64;103021.47;1259771;23;654;-75
2023/01/22 03:06:02;;;;;;;;;;;;;;;11.18;68.79;103028.59;1260431;23;673;-75
2023/01/22 03:06:52;;;;;;;;;;;;;;;11.16;69.30;103030.44;1260602;23;678;-75
2023/01/22 03:07:43;;;;;;;;;;;;;;;11.18;69.05;103027.75;1259680;23;657;-75
2023/01/22 03:08:34;;;;;;;;;;;;;;;11.19;69.09;103026.81;1262022;23;664;-74
2023/01/22 03:09:24;;;;;;;;;;;;;;;11.20;69.52;103029.44;1261426;23;673;-73
2023/01/22 03:10:14;;;;;;;;;;;;;;;11.21;68.69;103028.53;1259812;23;622;-74
2023/01/22 03:11:05;;;;;;;;;;;;;;;11.19;68.99;103027.69;1262427;23;626;-74
2023/01/22 03:11:55;;;;;;;;;;;;;;;11.18;69.19;103028.59;1261558;23;670;-75
2023/01/22 03:21:59;;;;;;;;;;;;;;;11.10;68.64;103031.56;1261421;23;606;-74
2023/01/22 03:22:50;;;;;;;;;;;;;;;11.10;69.54;103028.88;1261515;23;654;-73
2023/01/22 03:23:40;;;;;;;;;;;;;;;11.11;69.39;103021.72;1261492;23;718;-74
2023/01/22 03:24:30;;;;;;;;;;;;;;;11.08;69.38;103024.50;1259920;23;638;-75
2023/01/22 03:25:21;;;;;;;;;;;;;;;11.09;68.71;103013.78;1259982;23;630;-74
2023/01/22 03:26:11;;;;;;;;;;;;;;;11.10;69.45;103009.31;1259614;23;669;-74
2023/01/22 03:27:02;;;;;;;;;;;;;;;11.11;69.16;103024.38;1260077;23;646;-74
2023/01/22 03:28:17;;;;;;;;;;;;;;;11.12;69.56;103019.00;1259489;23;617;-73
2023/01/22 03:29:05;;;;;;;;;;;;;;;11.09;69.48;103013.78;1261296;23;673;-74
2023/01/22 03:29:56;;;;;;;;;;;;;;;11.09;69.11;103012.91;1259833;23;689;-74
2023/01/22 03:30:47;;;;;;;;;;;;;;;11.09;68.86;103023.59;1261456;23;646;-74
2023/01/22 03:31:37;;;;;;;;;;;;;;;11.07;69.52;103014.75;1259936;23;654;-74
2023/01/22 03:32:27;;;;;;;;;;;;;;;11.09;69.29;103015.59;1261327;23;672;-74
2023/01/22 03:33:18;;;;;;;;;;;;;;;11.10;68.67;103015.53;1261100;23;677;-74
2023/01/22 03:34:08;;;;;;;;;;;;;;;11.10;69.10;103015.53;1261294;23;783;-74
2023/01/22 03:35:00;;;;;;;;;;;;;;;11.10;69.26;103020.88;1259784;23;1297;-74
2023/01/22 03:35:51;;;;;;;;;;;;;;;11.11;69.13;103011.03;1261498;23;673;-74
2023/01/22 03:36:41;;;;;;;;;;;;;;;11.10;69.16;103014.66;1259859;23;615;-74
2023/01/22 03:37:31;;;;;;;;;;;;;;;11.06;69.15;103010.34;1260110;23;1889;-75
2023/01/22 03:38:22;;;;;;;;;;;;;;;11.06;69.44;103008.53;1259760;23;689;-74
2023/01/22 03:39:12;;;;;;;;;;;;;;;11.08;68.79;103013.84;1259641;23;678;-75
2023/01/22 03:40:03;;;;;;;;;;;;;;;11.09;69.08;103013.78;1260543;23;678;-74
2023/01/22 03:40:53;;;;;;;;;;;;;;;11.09;69.40;103016.47;1261460;23;649;-75
2023/01/22 03:41:44;;;;;;;;;;;;;;;11.07;68.85;103020.97;1259828;23;634;-74
2023/01/22 03:42:34;;;;;;;;;;;;;;;11.06;69.71;103013.88;1255808;23;653;-74
2023/01/22 03:43:24;;;;;;;;;;;;;;;11.07;69.23;103020.97;1249346;23;603;-75
2023/01/22 03:44:15;;;;;;;;;;;;;;;11.07;69.04;103009.41;1255466;23;670;-75
2023/01/22 03:45:05;;;;;;;;;;;;;;;11.05;69.44;103014.81;1261677;23;633;-75
2023/01/22 03:45:56;;;;;;;;;;;;;;;11.06;69.08;103013.88;1259920;23;661;-76
2023/01/22 03:46:46;;;;;;;;;;;;;;;11.05;69.17;103006.81;1262058;23;637;-75
2023/01/22 03:47:37;;;;;;;;;;;;;;;11.05;69.62;103016.59;1259870;23;666;-76
2023/01/22 03:48:27;;;;;;;;;;;;;;;11.04;69.60;103014.84;1255177;23;681;-74
2023/01/22 03:49:17;;;;;;;;;;;;;;;11.04;69.70;103014.84;1255655;23;677;-74
2023/01/22 03:50:08;;;;;;;;;;;;;;;11.03;69.15;103015.78;1261088;23;634;-74
2023/01/22 03:50:58;;;;;;;;;;;;;;;11.03;68.92;103013.97;1261036;23;660;-74
2023/01/22 03:51:49;;;;;;;;;;;;;;;11.04;69.81;103020.19;1255564;23;636;-74
2023/01/22 03:52:39;;;;;;;;;;;;;;;11.02;69.60;103016.69;1255210;23;634;-74
2023/01/22 03:53:29;;;;;;;;;;;;;;;11.01;68.82;103021.16;1260599;23;629;-74
2023/01/22 03:54:20;;;;;;;;;;;;;;;11.00;69.24;103016.75;1260346;23;673;-74
2023/01/22 03:55:10;;;;;;;;;;;;;;;11.02;69.42;103022.03;1261358;23;602;-74
2023/01/22 03:56:01;;;;;;;;;;;;;;;11.01;69.26;103017.63;1260182;23;641;-74
2023/01/22 03:56:51;;;;;;;;;;;;;;;11.00;69.82;103023.88;1259636;23;631;-74
2023/01/22 03:57:42;;;;;;;;;;;;;;;11.00;69.88;103023.88;1259535;23;1919;-74
2023/01/22 03:58:32;;;;;;;;;;;;;;;11.00;69.09;103022.06;1261777;23;664;-74
2023/01/22 03:59:23;;;;;;;;;;;;;;;11.00;69.38;103019.41;1259702;23;665;-74
2023/01/22 04:00:13;;;;;;;;;;;;;;;11.01;68.89;103026.50;1261346;23;709;-74
2023/01/22 04:01:03;;;;;;;;;;;;;;;11.00;68.84;103023.88;1260013;23;658;-74
2023/01/22 04:01:54;;;;;;;;;;;;;;;11.00;69.14;103018.53;1261346;23;716;-74
2023/01/22 04:02:44;;;;;;;;;;;;;;;10.99;69.57;103023.00;1259476;23;752;-74
2023/01/22 04:03:35;;;;;;;;;;;;;;;10.99;69.53;103027.47;1260262;23;657;-75
2023/01/22 04:04:25;;;;;;;;;;;;;;;10.97;69.39;103019.50;1259993;23;673;-75
2023/01/22 04:05:16;;;;;;;;;;;;;;;10.99;69.54;103022.13;1261649;23;617;-75
2023/01/22 04:06:06;;;;;;;;;;;;;;;10.98;69.16;103020.38;1259928;23;630;-74
2023/01/22 04:06:56;;;;;;;;;;;;;;;10.98;69.19;103017.72;1259665;23;677;-74
2023/01/22 04:07:47;;;;;;;;;;;;;;;10.98;69.20;103020.38;1259808;23;752;-74
2023/01/22 04:08:37;;;;;;;;;;;;;;;10.97;69.45;103021.28;1255057;23;614;-74
2023/01/22 04:09:28;;;;;;;;;;;;;;;10.99;69.46;103024.78;1249178;23;636;-74
2023/01/22 04:10:18;;;;;;;;;;;;;;;11.01;69.75;103022.94;1255334;23;692;-75
2023/01/22 04:11:09;;;;;;;;;;;;;;;11.01;69.39;103020.28;1261285;23;622;-74
2023/01/22 04:11:59;;;;;;;;;;;;;;;11.04;68.78;103020.19;1261429;23;788;-74
2023/01/22 04:12:49;;;;;;;;;;;;;;;11.03;69.31;103018.44;1259777;23;642;-74
2023/01/22 04:13:40;;;;;;;;;;;;;;;11.05;68.95;103024.59;1259674;23;780;-74
2023/01/22 04:14:30;;;;;;;;;;;;;;;11.04;69.26;103026.41;1261734;23;668;-74
2023/01/22 04:15:21;;;;;;;;;;;;;;;11.03;69.35;103026.44;1260136;23;602;-75
2023/01/22 04:16:11;;;;;;;;;;;;;;;11.02;69.15;103027.38;1259961;23;746;-74
2023/01/22 04:17:02;;;;;;;;;;;;;;;11.00;69.46;103035.41;1259647;23;619;-74
2023/01/22 04:17:52;;;;;;;;;;;;;;;11.03;69.49;103021.09;1259841;23;1885;-73
2023/01/22 04:18:42;;;;;;;;;;;;;;;11.01;68.87;103022.94;1259614;23;658;-74
2023/01/22 04:19:33;;;;;;;;;;;;;;;11.02;69.29;103022.91;1260253;23;633;-73
2023/01/22 04:20:23;;;;;;;;;;;;;;;11.00;69.63;103019.41;1261403;23;614;-74
2023/01/22 04:21:14;;;;;;;;;;;;;;;11.01;69.01;103020.28;1261242;23;602;-74
2023/01/22 04:22:04;;;;;;;;;;;;;;;10.99;68.97;103015.00;1260372;23;685;-74
2023/01/22 04:22:55;;;;;;;;;;;;;;;11.01;68.75;103015.81;1259613;23;655;-73
2023/01/22 04:23:45;;;;;;;;;;;;;;;10.99;68.86;103015.00;1260259;23;692;-74
2023/01/22 04:24:35;;;;;;;;;;;;;;;11.03;69.42;103015.78;1260051;23;606;-74
2023/01/22 04:25:26;;;;;;;;;;;;;;;11.03;69.55;103013.97;1259779;23;622;-74
2023/01/22 04:26:16;;;;;;;;;;;;;;;11.04;68.57;103014.84;1261849;23;677;-74
2023/01/22 04:27:07;;;;;;;;;;;;;;;11.02;69.46;103011.34;1259721;23;638;-74
2023/01/22 04:27:57;;;;;;;;;;;;;;;11.01;69.43;103009.59;1259809;23;709;-74
2023/01/22 04:28:48;;;;;;;;;;;;;;;11.01;69.35;103015.81;1255443;23;760;-74
2023/01/22 04:29:38;;;;;;;;;;;;;;;10.99;69.10;103006.13;1255077;23;622;-74
2023/01/22 04:30:28;;;;;;;;;;;;;;;10.97;69.48;103007.94;1260429;23;1001;-74
2023/01/22 04:31:19;;;;;;;;;;;;;;;10.98;68.83;103009.69;1260235;23;693;-75
2023/01/22 04:32:09;;;;;;;;;;;;;;;10.99;69.09;103012.31;1259541;23;618;-75
2023/01/22 04:33:00;;;;;;;;;;;;;;;10.97;69.04;103005.28;1259803;23;682;-75
2023/01/22 04:33:50;;;;;;;;;;;;;;;10.95;69.34;103009.78;1262092;23;641;-75
2023/01/22 04:34:41;;;;;;;;;;;;;;;10.96;69.61;103011.53;1261164;23;1339;-76
2023/01/22 04:35:32;;;;;;;;;;;;;;;10.93;69.12;103011.63;1262014;23;625;-76